Loading…
Loading parcel record…
Princeton, NJ·Mercer County
Owner email, phone, and authorized agent are available on Pro.
Activity captured from the county clerk's daily feed. Includes deeds, mortgages, and other recorded filings.
| Date | Type | Grantor | Grantee | Book / Page | Instrument |
|---|---|---|---|---|---|
| 2026-04-08 | DISCHARGE OF MORTGAGE | — | — | 1694 / 128 | 2026015245 |
| 2026-04-06 | MORTGAGE | — | — | 12039 / 267 | 2026014550 |
| 2026-04-02 | DISCHARGE OF LIS PENDENS |
| — |
| — |
| 443 / 220 |
| 2026014115 |
| 2026-03-31 | NOTICE OF SETTLEMENT | — | — | 1626 / 262 | 2026013743 |
| 2026-03-18 | DISCHARGE OF MORTGAGE | — | — | 1693 / 499 | 2026012300 |
| 2026-02-13 | ASSIGNMENT OF RENTS/LEASES | — | — | 12024 / 376 | 2026006124 |
| 2026-02-13 | MORTGAGE | — | — | 12024 / 358 | 2026006123 |
| 2026-02-09 | UCC TERMINATION | — | — | 260 / 841 | 2026004968 |
| 2025-08-27 | DEED | — | — | 6602 / 66 | 2025031716 |
| 2024-12-26 | DEED | — | — | 6578 / 1133 | 2024044251 |
| 2024-07-22 | NOTICE OF LIS PENDENS | — | — | 438 / 1424 | 2024024984 |
| 2024-03-13 | ASSIGNMENT OF RENTS/LEASES | — | — | 11866 / 524 | 2024009699 |
| 2024-03-13 | MORTGAGE | — | — | 11866 / 496 | 2024009698 |
| 2023-10-04 | DEED | — | — | 6536 / 1953 | 2023034085 |
| 2023-05-17 | MORTGAGE | — | — | 11810 / 695 | 2023017725 |
| 2023-05-17 | DEED | — | — | 6523 / 652 | 2023017724 |
| 2023-04-10 | MORTGAGE | — | — | 11803 / 1657 | 2023013070 |
| 2022-11-04 | DEED | — | — | 6506 / 84 | 2022050152 |
| 2022-06-08 | DEED | — | — | 6488 / 67 | 2022027969 |
| 2022-04-20 | DEED | — | — | 6482 / 960 | 2022020357 |
| 2022-02-04 | MORTGAGE | — | — | 11710 / 278 | 2022007057 |
| 2021-12-22 | NOTICE OF SETTLEMENT | — | — | 1567 / 1759 | 2021075305 |
| 2021-12-16 | DEED | — | — | 6468 / 227 | 2021074334 |
| 2021-11-23 | DEED | — | — | 6465 / 457 | 2021070240 |
| 2021-09-08 | NOTICE OF LIS PENDENS | — | — | 432 / 454 | 2021054157 |
| 2021-07-15 | DEED | — | — | 6448 / 901 | 2021042648 |
| 2021-01-13 | DEED | — | — | 6427 / 519 | 2021002071 |
| 2020-08-10 | DEED | — | — | 6410 / 1222 | 2020033453 |
| 2020-03-04 | DEED | — | — | 6398 / 1555 | 2020010541 |
| 2020-01-13 | NOTICE OF SETTLEMENT | — | — | 1524 / 1891 | 2020001974 |